Time;durP1;ratioP1;P1;durP2;ratioP2;P2;SDS_P1;SDS_P2;PMS_P1;PMS_P2;Temp;Humidity;BMP_temperature;BMP_pressure;BME280_temperature;BME280_humidity;BME280_pressure;Samples;Min_cycle;Max_cycle;Signal;HPM_P1;HPM_P2
2021/09/19 00:00:52;;;;;;;21.08;13.27;;;;;;;15.72;100.00;96109.72;4986913;28;20054;-59
2021/09/19 00:03:20;;;;;;;23.10;15.70;;;;;;;15.57;100.00;96106.22;4990579;28;20078;-60
2021/09/19 00:05:49;;;;;;;19.08;14.35;;;;;;;15.55;100.00;96101.06;4986179;28;20458;-58
2021/09/19 00:08:18;;;;;;;16.67;13.25;;;;;;;15.32;100.00;96100.38;4986196;28;20331;-58
2021/09/19 00:10:46;;;;;;;20.02;14.80;;;;;;;15.71;100.00;96099.28;4988707;28;20093;-60
2021/09/19 00:13:19;;;;;;;30.58;19.05;;;;;;;15.81;100.00;96100.63;4988641;28;20081;-61
2021/09/19 00:15:49;;;;;;;55.75;20.42;;;;;;;15.96;100.00;96094.47;4984783;28;20062;-58
2021/09/19 00:18:17;;;;;;;20.80;15.27;;;;;;;15.86;100.00;96095.59;4991286;28;20089;-59
2021/09/19 00:20:46;;;;;;;18.83;14.43;;;;;;;15.70;100.00;96097.63;4991153;28;20084;-58
2021/09/19 00:23:15;;;;;;;21.52;16.40;;;;;;;15.51;100.00;96097.16;4988575;28;20543;-59
2021/09/19 00:25:44;;;;;;;156.35;19.85;;;;;;;15.89;100.00;96095.19;4991121;28;20457;-60
2021/09/19 00:28:12;;;;;;;94.03;19.00;;;;;;;15.94;100.00;96099.16;4994799;28;20108;-58
2021/09/19 00:30:40;;;;;;;75.80;16.95;;;;;;;15.83;100.00;96098.63;4990698;28;20062;-54
2021/09/19 00:33:10;;;;;;;40.22;18.83;;;;;;;16.05;100.00;96086.19;4985236;28;20177;-58
2021/09/19 00:35:39;;;;;;;46.78;18.67;;;;;;;15.95;100.00;96090.97;4990108;28;20524;-57
2021/09/19 00:38:07;;;;;;;84.57;16.63;;;;;;;15.49;100.00;96103.69;4991391;28;20074;-59
2021/09/19 00:40:36;;;;;;;23.83;16.52;;;;;;;15.52;100.00;96096.16;4983777;28;20074;-57
2021/09/19 00:43:04;;;;;;;21.10;16.38;;;;;;;15.60;100.00;96104.03;4985305;28;20496;-58
2021/09/19 00:45:33;;;;;;;20.65;15.88;;;;;;;15.72;100.00;96093.75;4987945;28;20520;-58
2021/09/19 00:48:01;;;;;;;29.15;17.20;;;;;;;15.68;100.00;96081.84;4986742;28;20062;-57
2021/09/19 00:50:31;;;;;;;44.05;17.83;;;;;;;15.73;100.00;96086.63;4988777;28;20084;-59
2021/09/19 00:53:00;;;;;;;43.13;14.35;;;;;;;15.73;100.00;96090.13;4987635;28;20089;-59
2021/09/19 00:55:29;;;;;;;45.63;12.23;;;;;;;15.77;100.00;96090.56;4984189;28;20077;-55
2021/09/19 00:57:57;;;;;;;68.78;10.95;;;;;;;15.77;100.00;96083.41;4991603;28;20082;-58
2021/09/19 01:00:28;;;;;;;43.40;12.27;;;;;;;15.72;100.00;96092.94;4984575;28;20070;-59
2021/09/19 01:02:57;;;;;;;84.13;11.93;;;;;;;15.37;100.00;96093.47;4989462;28;20567;-58
2021/09/19 01:05:25;;;;;;;30.88;11.20;;;;;;;15.62;100.00;96090.53;4985755;28;20504;-59
2021/09/19 01:07:55;;;;;;;14.10;10.77;;;;;;;15.35;100.00;96081.41;4988577;28;20140;-60
2021/09/19 01:10:26;;;;;;;12.43;11.10;;;;;;;15.03;100.00;96083.38;4991886;28;20070;-58
2021/09/19 01:12:57;;;;;;;19.27;11.98;;;;;;;14.88;100.00;96083.38;4988084;28;20252;-59
2021/09/19 01:15:26;;;;;;;13.32;12.02;;;;;;;14.45;100.00;96087.53;5006883;28;20088;-53
2021/09/19 01:17:55;;;;;;;13.68;12.30;;;;;;;14.46;100.00;96079.41;4986761;28;20065;-60
2021/09/19 01:20:24;;;;;;;13.00;11.60;;;;;;;14.54;100.00;96080.38;4984164;28;20054;-58
2021/09/19 01:23:04;;;;;;;27.10;14.18;;;;;;;14.73;100.00;96063.97;4984224;28;20527;-57
2021/09/19 01:25:34;;;;;;;15.23;13.57;;;;;;;15.05;100.00;96067.28;4989388;28;20389;-56
2021/09/19 01:28:03;;;;;;;13.55;12.15;;;;;;;14.98;100.00;96069.84;4989725;28;20072;-56
2021/09/19 01:30:32;;;;;;;15.70;13.38;;;;;;;15.14;100.00;96063.53;4990177;28;20422;-56
2021/09/19 01:33:01;;;;;;;70.25;18.20;;;;;;;14.81;100.00;96066.53;4984829;28;20074;-54
2021/09/19 01:35:30;;;;;;;146.07;19.25;;;;;;;14.47;100.00;96062.47;5013241;28;20089;-57
2021/09/19 01:37:59;;;;;;;24.48;17.17;;;;;;;14.54;100.00;96061.78;4981410;28;20516;-58
2021/09/19 01:40:28;;;;;;;50.22;15.40;;;;;;;14.67;100.00;96062.84;4986350;28;20795;-55
2021/09/19 01:42:58;;;;;;;37.92;15.90;;;;;;;15.03;100.00;96056.00;4989315;28;20050;-59
2021/09/19 01:45:28;;;;;;;30.20;16.60;;;;;;;14.70;100.00;96061.66;4989007;28;20065;-55
2021/09/19 01:47:57;;;;;;;22.90;15.93;;;;;;;15.03;100.00;96056.84;4986611;28;20516;-57
2021/09/19 01:50:27;;;;;;;20.83;14.73;;;;;;;15.08;100.00;96056.31;4987095;28;20137;-55
2021/09/19 01:52:56;;;;;;;18.50;13.35;;;;;;;14.74;100.00;96060.28;4987595;28;20113;-57
2021/09/19 01:55:25;;;;;;;17.27;14.23;;;;;;;14.95;100.00;96052.44;4987937;28;20464;-59
2021/09/19 01:57:54;;;;;;;17.75;13.95;;;;;;;15.00;100.00;96056.38;4989152;28;20070;-57
2021/09/19 02:00:25;;;;;;;19.33;12.50;;;;;;;14.91;100.00;96051.16;4989630;28;20066;-58
2021/09/19 02:02:54;;;;;;;14.88;10.57;;;;;;;14.80;100.00;96042.81;4983903;28;20444;-57
2021/09/19 02:05:23;;;;;;;13.75;11.70;;;;;;;14.12;100.00;96048.00;4984120;28;20087;-57
2021/09/19 02:07:52;;;;;;;12.20;10.68;;;;;;;14.75;100.00;96034.56;4989502;28;20054;-58
2021/09/19 02:10:21;;;;;;;14.25;11.05;;;;;;;14.88;100.00;96034.78;4992896;28;20073;-58
2021/09/19 02:12:49;;;;;;;15.73;11.77;;;;;;;14.91;100.00;96035.22;4985949;28;20069;-60
2021/09/19 02:15:18;;;;;;;14.80;12.10;;;;;;;14.94;100.00;96032.22;4988755;28;20500;-58
2021/09/19 02:17:48;;;;;;;15.43;12.02;;;;;;;14.90;100.00;96024.78;4985695;28;20058;-58
2021/09/19 02:20:17;;;;;;;14.57;11.45;;;;;;;14.79;100.00;96018.09;5000433;28;20070;-60
2021/09/19 02:22:46;;;;;;;13.45;11.27;;;;;;;14.42;100.00;96025.06;4991364;28;20536;-58
2021/09/19 02:25:14;;;;;;;13.77;11.55;;;;;;;14.59;100.00;96020.47;4991616;28;20440;-56
2021/09/19 02:27:43;;;;;;;13.43;10.77;;;;;;;14.56;100.00;96017.34;4988082;28;20102;-59
2021/09/19 02:30:14;;;;;;;11.35;9.57;;;;;;;14.38;100.00;96012.31;4986589;28;20066;-56
2021/09/19 02:32:43;;;;;;;21.48;9.60;;;;;;;14.27;100.00;96021.53;4988010;28;20070;-59
2021/09/19 02:35:13;;;;;;;9.73;8.73;;;;;;;14.23;100.00;96013.09;4992408;28;20062;-53
2021/09/19 02:37:43;;;;;;;9.93;8.93;;;;;;;14.20;100.00;96015.28;4991864;28;20058;-58
2021/09/19 02:40:12;;;;;;;12.90;10.02;;;;;;;14.01;100.00;96013.94;4990406;28;20081;-55
2021/09/19 02:42:42;;;;;;;14.13;10.55;;;;;;;14.18;100.00;96006.69;4989094;28;20066;-57
2021/09/19 02:45:12;;;;;;;13.18;10.13;;;;;;;13.92;100.00;96012.34;4986894;28;20089;-57
2021/09/19 02:47:40;;;;;;;12.82;10.93;;;;;;;14.28;100.00;96011.72;4993734;28;20560;-59
2021/09/19 02:50:11;;;;;;;12.90;10.90;;;;;;;13.91;100.00;96013.34;4986306;28;20062;-58
2021/09/19 02:52:41;;;;;;;;;;;;;;;14.09;100.00;96000.63;4992138;28;20097;-59
2021/09/19 02:55:11;;;;;;;10.43;9.07;;;;;;;13.78;100.00;96005.97;4992491;28;20426;-57
2021/09/19 02:57:40;;;;;;;11.25;9.65;;;;;;;14.13;100.00;96004.56;4991638;28;20426;-57
2021/09/19 03:00:11;;;;;;;10.50;8.68;;;;;;;14.38;100.00;95999.06;4990190;28;20097;-53
2021/09/19 03:02:39;;;;;;;15.27;12.05;;;;;;;14.04;100.00;96000.34;4990250;28;20327;-57
2021/09/19 03:05:09;;;;;;;19.70;13.57;;;;;;;14.14;100.00;95979.72;5000535;28;20082;-57
2021/09/19 03:07:37;;;;;;;17.15;12.98;;;;;;;14.43;100.00;95988.75;5025087;28;20078;-58
2021/09/19 03:10:10;;;;;;;15.50;12.52;;;;;;;14.55;100.00;95991.78;4989422;28;20058;-59
2021/09/19 03:12:39;;;;;;;16.60;11.88;;;;;;;14.60;100.00;95986.78;4983210;28;20054;-56
2021/09/19 03:15:09;;;;;;;21.83;14.98;;;;;;;14.45;100.00;95971.66;4989665;28;20476;-56
2021/09/19 03:17:37;;;;;;;21.50;14.97;;;;;;;14.42;100.00;95974.66;4990655;28;20460;-60
2021/09/19 03:20:08;;;;;;;22.40;14.73;;;;;;;14.53;100.00;95972.59;4990292;28;20081;-55
2021/09/19 03:22:37;;;;;;;19.30;14.93;;;;;;;14.43;100.00;95978.13;4991524;28;20065;-57
2021/09/19 03:25:08;;;;;;;18.98;14.40;;;;;;;14.36;100.00;95974.56;4990294;28;20373;-56
2021/09/19 03:27:37;;;;;;;18.45;13.60;;;;;;;14.36;100.00;95961.28;4988301;28;20070;-55
2021/09/19 03:30:08;;;;;;;17.17;12.98;;;;;;;14.21;100.00;95963.88;4992512;28;20137;-58
2021/09/19 03:32:36;;;;;;;18.75;13.90;;;;;;;13.97;100.00;95952.50;4990947;28;20535;-56
2021/09/19 03:35:05;;;;;;;23.52;12.75;;;;;;;13.60;100.00;95953.28;5021683;28;20061;-59
2021/09/19 03:37:34;;;;;;;20.73;13.88;;;;;;;13.60;100.00;95955.94;4987265;28;20104;-60
2021/09/19 03:40:04;;;;;;;20.70;13.30;;;;;;;13.43;100.00;95951.72;4986787;28;20080;-57
2021/09/19 03:42:34;;;;;;;18.65;13.75;;;;;;;13.54;100.00;95949.50;4989106;28;20161;-57
2021/09/19 03:45:02;;;;;;;16.92;13.02;;;;;;;13.54;100.00;95946.84;4989588;28;20067;-59
2021/09/19 03:47:31;;;;;;;21.05;15.05;;;;;;;13.61;100.00;95949.63;4989710;28;20077;-58
2021/09/19 03:50:00;;;;;;;23.05;15.20;;;;;;;13.62;100.00;95939.84;4995094;28;20066;-57
2021/09/19 03:52:28;;;;;;;19.50;14.52;;;;;;;13.84;100.00;95940.84;4987227;28;20077;-57
2021/09/19 03:54:57;;;;;;;21.65;14.88;;;;;;;13.83;100.00;95933.88;4991165;28;20159;-55
2021/09/19 03:57:25;;;;;;;21.30;15.27;;;;;;;14.08;100.00;95935.34;4988871;28;20074;-53
2021/09/19 03:59:55;;;;;;;21.42;15.50;;;;;;;14.10;100.00;95940.47;4988947;28;20073;-58
2021/09/19 04:02:24;;;;;;;23.02;16.10;;;;;;;14.16;100.00;95940.56;4990110;28;20123;-57
2021/09/19 04:04:52;;;;;;;21.92;14.75;;;;;;;14.41;100.00;95940.34;4988604;28;20069;-60
2021/09/19 04:07:21;;;;;;;17.35;13.02;;;;;;;14.13;100.00;95935.63;4992442;28;20082;-59
2021/09/19 04:09:50;;;;;;;16.20;12.23;;;;;;;14.11;100.00;95940.28;4987999;28;20073;-58
2021/09/19 04:12:18;;;;;;;17.30;13.35;;;;;;;14.14;100.00;95937.28;4989591;28;20073;-57
2021/09/19 04:14:47;;;;;;;16.00;13.27;;;;;;;14.21;100.00;95932.91;4991469;28;20078;-57
2021/09/19 04:17:16;;;;;;;16.58;13.05;;;;;;;14.25;100.00;95930.72;4988326;28;20066;-58
2021/09/19 04:19:45;;;;;;;16.88;12.68;;;;;;;14.20;100.00;95947.16;4988138;28;20070;-59
2021/09/19 04:22:13;;;;;;;14.48;12.02;;;;;;;14.22;100.00;95945.16;4991972;28;20450;-58
2021/09/19 04:24:42;;;;;;;13.77;11.95;;;;;;;14.24;100.00;95948.44;4989446;28;20062;-59
2021/09/19 04:27:10;;;;;;;14.63;11.55;;;;;;;14.20;100.00;95946.34;4991166;28;20062;-56
2021/09/19 04:29:39;;;;;;;16.10;13.00;;;;;;;14.22;100.00;95955.75;4988762;28;20092;-55
2021/09/19 04:32:07;;;;;;;20.88;13.57;;;;;;;14.28;100.00;95954.22;4991942;28;20074;-59
2021/09/19 04:34:37;;;;;;;18.45;14.13;;;;;;;14.23;100.00;95951.28;4990227;28;20512;-56
2021/09/19 04:37:05;;;;;;;19.73;14.45;;;;;;;14.29;100.00;95955.06;4988100;28;20090;-57
2021/09/19 04:39:34;;;;;;;20.25;15.43;;;;;;;14.18;100.00;95951.00;4981825;28;20310;-56
2021/09/19 04:42:03;;;;;;;23.02;16.50;;;;;;;14.08;100.00;95953.09;4989806;28;20074;-57
2021/09/19 04:44:31;;;;;;;24.48;15.77;;;;;;;13.97;100.00;95957.81;4988946;28;20716;-57
2021/09/19 04:47:00;;;;;;;51.00;16.38;;;;;;;14.19;100.00;95964.06;4989979;28;20070;-56
2021/09/19 04:49:28;;;;;;;28.85;16.02;;;;;;;14.35;100.00;95962.28;4988405;28;20069;-59
2021/09/19 04:51:58;;;;;;;76.05;18.85;;;;;;;14.27;100.00;95975.63;4990737;28;20453;-58
2021/09/19 04:54:27;;;;;;;109.03;19.10;;;;;;;14.00;100.00;95977.81;4987517;28;20053;-58
2021/09/19 04:56:55;;;;;;;80.20;18.10;;;;;;;14.47;100.00;95979.41;4991348;28;20154;-59
2021/09/19 04:59:24;;;;;;;183.85;18.92;;;;;;;13.72;100.00;95981.00;4990454;28;20323;-50
2021/09/19 05:01:52;;;;;;;159.60;16.20;;;;;;;13.56;100.00;95978.47;4989922;28;20080;-56
2021/09/19 05:04:21;;;;;;;73.20;15.13;;;;;;;14.60;100.00;95977.00;5019380;28;20074;-58
2021/09/19 05:06:49;;;;;;;87.68;15.45;;;;;;;14.47;100.00;95972.28;4983541;28;20077;-56
2021/09/19 05:09:19;;;;;;;55.20;14.82;;;;;;;14.54;100.00;95975.06;4987889;28;20077;-59
2021/09/19 05:11:47;;;;;;;76.88;15.20;;;;;;;14.49;100.00;95977.41;4986926;28;20069;-59
2021/09/19 05:14:16;;;;;;;110.78;16.75;;;;;;;14.37;100.00;95971.69;4986355;28;20177;-59
2021/09/19 05:16:44;;;;;;;141.45;18.55;;;;;;;14.83;100.00;95974.28;4987248;28;20077;-59
2021/09/19 05:19:13;;;;;;;59.78;15.77;;;;;;;15.19;100.00;95984.13;4991831;28;20573;-55
2021/09/19 05:21:41;;;;;;;99.10;16.80;;;;;;;15.16;100.00;95976.53;4985889;28;20081;-59
2021/09/19 05:24:10;;;;;;;61.10;14.38;;;;;;;15.23;100.00;95984.59;4993145;28;20077;-59
2021/09/19 05:26:40;;;;;;;60.85;13.75;;;;;;;15.24;100.00;95979.06;4991422;28;20069;-56
2021/09/19 05:29:08;;;;;;;80.90;14.02;;;;;;;15.31;100.00;95971.19;4990615;28;20073;-60
2021/09/19 05:31:37;;;;;;;48.38;13.90;;;;;;;15.43;100.00;95975.84;4987746;28;20073;-59
2021/09/19 05:34:05;;;;;;;44.47;12.82;;;;;;;15.46;100.00;95977.31;4990558;28;20078;-58
2021/09/19 05:36:34;;;;;;;33.85;11.65;;;;;;;15.57;100.00;95976.81;4986751;28;20636;-56
2021/09/19 05:39:02;;;;;;;69.68;14.00;;;;;;;15.50;100.00;95980.41;4986496;28;20069;-59
2021/09/19 05:41:31;;;;;;;36.55;13.00;;;;;;;15.76;100.00;95978.09;4992715;28;20089;-58
2021/09/19 05:44:01;;;;;;;32.75;12.40;;;;;;;15.53;100.00;95985.34;4984364;28;20071;-59
2021/09/19 05:46:30;;;;;;;43.67;11.48;;;;;;;15.66;100.00;95980.22;4990668;28;20134;-57
2021/09/19 05:48:59;;;;;;;31.45;11.32;;;;;;;15.58;100.00;95985.59;4985439;28;20082;-57
2021/09/19 05:51:27;;;;;;;27.80;11.20;;;;;;;15.79;100.00;95985.66;4986836;28;20076;-58
2021/09/19 05:53:56;;;;;;;30.98;11.05;;;;;;;15.55;100.00;95986.78;4985977;28;20074;-57
2021/09/19 05:56:24;;;;;;;32.20;11.07;;;;;;;15.74;100.00;95996.06;4988484;28;20050;-58
2021/09/19 05:58:54;;;;;;;30.67;11.63;;;;;;;16.08;100.00;95992.72;4989027;28;20074;-58
2021/09/19 06:01:24;;;;;;;48.47;12.20;;;;;;;15.83;100.00;95999.44;4989501;28;20086;-59
2021/09/19 06:03:53;;;;;;;53.35;11.95;;;;;;;15.17;100.00;95992.28;4980961;28;20247;-59
2021/09/19 06:06:21;;;;;;;21.73;11.25;;;;;;;15.58;100.00;95986.44;4987392;28;20071;-58
2021/09/19 06:08:50;;;;;;;16.25;10.77;;;;;;;15.50;100.00;95986.53;4986651;28;20092;-58
2021/09/19 06:11:18;;;;;;;32.78;10.77;;;;;;;15.62;100.00;95994.84;4992954;28;20456;-59
2021/09/19 06:13:47;;;;;;;68.38;11.80;;;;;;;16.02;100.00;95996.13;4992248;28;20120;-60
2021/09/19 06:16:15;;;;;;;38.28;11.38;;;;;;;16.06;100.00;95991.25;4997004;28;20093;-57
2021/09/19 06:18:45;;;;;;;60.63;12.18;;;;;;;16.16;100.00;95986.44;4989884;28;20547;-59
2021/09/19 06:21:13;;;;;;;48.95;11.90;;;;;;;16.56;100.00;95984.94;4989785;28;20077;-58
2021/09/19 06:23:42;;;;;;;27.85;10.95;;;;;;;16.01;100.00;95983.03;4993206;28;20074;-57
2021/09/19 06:26:10;;;;;;;31.10;11.38;;;;;;;15.79;100.00;95987.50;4990675;28;20100;-56
2021/09/19 06:28:39;;;;;;;26.98;11.23;;;;;;;16.66;100.00;95973.13;4989136;28;20661;-58
2021/09/19 06:31:07;;;;;;;40.53;10.63;;;;;;;16.10;100.00;95976.56;4990463;28;20086;-59
2021/09/19 06:33:36;;;;;;;36.47;11.27;;;;;;;16.30;100.00;95972.22;4989383;28;20072;-59
2021/09/19 06:36:06;;;;;;;28.35;10.98;;;;;;;16.66;100.00;95973.13;4988674;28;20070;-57
2021/09/19 06:38:34;;;;;;;33.88;11.55;;;;;;;16.53;100.00;95976.50;4988537;28;20077;-60
2021/09/19 06:41:03;;;;;;;23.08;11.30;;;;;;;16.32;100.00;95967.53;4989865;28;20082;-59
2021/09/19 06:43:31;;;;;;;17.73;11.77;;;;;;;16.85;100.00;95969.78;4987536;28;20712;-57
2021/09/19 06:46:00;;;;;;;18.80;12.75;;;;;;;17.14;100.00;95967.91;4990467;28;20082;-58
2021/09/19 06:48:28;;;;;;;17.30;12.50;;;;;;;17.16;100.00;95966.66;4987309;28;20073;-57
2021/09/19 06:50:57;;;;;;;18.90;13.90;;;;;;;16.84;100.00;95966.31;4986961;28;20147;-54
2021/09/19 06:53:26;;;;;;;24.83;13.40;;;;;;;16.80;100.00;95967.72;4988386;28;20539;-59
2021/09/19 06:55:55;;;;;;;24.48;14.13;;;;;;;16.53;100.00;95965.88;4993300;28;20077;-55
2021/09/19 06:58:23;;;;;;;24.13;14.70;;;;;;;16.27;100.00;95967.28;5024263;28;20082;-59
2021/09/19 07:00:52;;;;;;;18.92;14.00;;;;;;;17.09;100.00;95971.16;4988861;28;20070;-58
2021/09/19 07:03:20;;;;;;;20.95;14.68;;;;;;;16.10;100.00;95971.22;4987608;28;20069;-58
2021/09/19 07:05:49;;;;;;;20.95;15.05;;;;;;;16.95;100.00;95977.44;4986815;28;20058;-60
2021/09/19 07:08:18;;;;;;;20.95;14.90;;;;;;;16.67;100.00;95974.75;4988487;28;20070;-59
2021/09/19 07:10:47;;;;;;;24.35;16.25;;;;;;;16.06;100.00;95975.28;4986591;28;20070;-56
2021/09/19 07:13:16;;;;;;;32.45;16.55;;;;;;;16.02;100.00;95971.38;4989754;28;20524;-54
2021/09/19 07:15:44;;;;;;;28.08;16.30;;;;;;;17.11;100.00;95969.13;4985929;28;20061;-54
2021/09/19 07:18:13;;;;;;;35.67;17.95;;;;;;;16.54;100.00;95980.81;4989067;28;20093;-55
2021/09/19 07:20:41;;;;;;;30.17;18.40;;;;;;;16.49;100.00;95976.06;4981567;28;20034;-58
2021/09/19 07:23:10;;;;;;;34.40;18.35;;;;;;;16.39;100.00;95972.94;4986708;28;20054;-55
2021/09/19 07:25:38;;;;;;;33.55;19.42;;;;;;;16.22;100.00;95972.38;4985535;28;20468;-53
2021/09/19 07:28:10;;;;;;;28.00;19.35;;;;;;;16.10;100.00;95973.88;4986338;28;20929;-56
2021/09/19 07:30:39;;;;;;;30.42;21.33;;;;;;;16.71;100.00;95968.84;4986713;28;20077;-54
2021/09/19 07:33:08;;;;;;;31.75;21.02;;;;;;;17.25;100.00;95964.66;4987867;28;20062;-56
2021/09/19 07:35:36;;;;;;;33.75;23.27;;;;;;;16.68;100.00;95968.41;4987482;28;20069;-56
2021/09/19 07:38:05;;;;;;;31.65;22.67;;;;;;;16.75;100.00;95963.97;5004517;28;20084;-55
2021/09/19 07:40:34;;;;;;;30.95;22.33;;;;;;;17.48;100.00;95967.00;4985735;28;20081;-57
2021/09/19 07:43:04;;;;;;;33.75;22.60;;;;;;;17.22;100.00;95970.41;4985496;28;20065;-57
2021/09/19 07:45:34;;;;;;;31.15;21.75;;;;;;;17.19;100.00;95973.44;4985028;28;20471;-54
2021/09/19 07:48:03;;;;;;;32.15;22.85;;;;;;;17.56;100.00;95969.50;4987679;28;20539;-57
2021/09/19 07:50:32;;;;;;;32.08;22.17;;;;;;;18.21;100.00;95970.69;4986127;28;20065;-59
2021/09/19 07:53:01;;;;;;;29.70;20.92;;;;;;;18.06;100.00;95982.56;4989326;28;20068;-58
2021/09/19 07:55:31;;;;;;;27.80;21.17;;;;;;;17.66;100.00;95983.28;4981979;28;20109;-55
2021/09/19 07:58:00;;;;;;;29.55;21.50;;;;;;;17.94;100.00;95985.03;4988992;28;20747;-55
2021/09/19 08:00:28;;;;;;;30.80;22.17;;;;;;;18.10;100.00;95979.31;4985454;28;20070;-57
2021/09/19 08:02:59;;;;;;;29.23;21.85;;;;;;;17.59;100.00;95986.97;4986189;28;20080;-53
2021/09/19 08:05:27;;;;;;;28.08;21.00;;;;;;;17.73;100.00;95986.78;4985623;28;20445;-59
2021/09/19 08:07:56;;;;;;;29.27;21.50;;;;;;;17.89;100.00;95990.94;4983496;28;20074;-55
2021/09/19 08:10:24;;;;;;;26.77;20.85;;;;;;;17.89;100.00;95982.94;4987302;28;20556;-56
2021/09/19 08:12:53;;;;;;;26.15;20.17;;;;;;;18.30;100.00;95978.47;4982390;28;20073;-59
2021/09/19 08:15:22;;;;;;;23.77;19.08;;;;;;;17.66;100.00;95983.28;4986948;28;20054;-58
2021/09/19 08:17:50;;;;;;;25.10;19.60;;;;;;;18.26;100.00;95983.41;4983507;28;20057;-57
2021/09/19 08:20:20;;;;;;;26.05;21.20;;;;;;;18.12;100.00;95984.44;4984579;28;20131;-57
2021/09/19 08:22:48;;;;;;;25.27;20.67;;;;;;;18.74;100.00;95988.56;4983936;28;20085;-54
2021/09/19 08:25:18;;;;;;;23.95;19.50;;;;;;;19.02;100.00;95982.97;4987052;28;20085;-57
2021/09/19 08:27:47;;;;;;;23.27;18.83;;;;;;;17.79;100.00;95996.69;4982022;28;20073;-58
2021/09/19 08:30:16;;;;;;;23.08;18.42;;;;;;;19.19;100.00;95994.84;4981646;28;20085;-56
2021/09/19 08:32:44;;;;;;;22.58;17.83;;;;;;;20.25;100.00;95980.16;4981805;28;20484;-57
2021/09/19 08:35:14;;;;;;;21.77;17.92;;;;;;;19.77;100.00;95980.66;4981507;28;20418;-58
2021/09/19 08:37:44;;;;;;;19.13;17.08;;;;;;;19.85;100.00;95982.25;4986072;28;20093;-60
2021/09/19 08:40:14;;;;;;;21.00;17.73;;;;;;;19.14;100.00;95980.50;4984897;28;20081;-54
2021/09/19 08:42:43;;;;;;;21.70;18.00;;;;;;;19.27;100.00;95972.44;4982065;28;20074;-58
2021/09/19 08:45:12;;;;;;;22.10;19.55;;;;;;;19.85;100.00;95980.41;4985917;28;20058;-59
2021/09/19 08:47:41;;;;;;;20.13;17.90;;;;;;;20.13;100.00;95977.38;4984434;28;20065;-59
2021/09/19 08:50:11;;;;;;;22.30;18.15;;;;;;;20.01;100.00;95983.63;4984863;28;20539;-60
2021/09/19 08:52:40;;;;;;;20.42;18.02;;;;;;;18.78;100.00;95984.44;4984811;28;20070;-57
2021/09/19 08:55:11;;;;;;;19.95;17.73;;;;;;;18.89;100.00;95983.84;4986685;28;20082;-58
2021/09/19 08:57:40;;;;;;;19.35;16.58;;;;;;;19.27;100.00;95991.16;4984950;28;20066;-58
2021/09/19 09:00:11;;;;;;;18.25;15.82;;;;;;;19.31;100.00;95984.34;4983334;28;20057;-56
2021/09/19 09:02:48;;;;;;;18.65;15.45;;;;;;;19.81;100.00;95987.22;4985430;28;20077;-59
2021/09/19 09:05:22;;;;;;;18.25;15.63;;;;;;;19.29;100.00;95983.72;4983845;28;20062;-59
2021/09/19 09:07:52;;;;;;;18.45;15.77;;;;;;;20.14;100.00;95986.22;4984113;28;20073;-59
2021/09/19 09:10:41;;;;;;;15.95;14.25;;;;;;;20.08;100.00;95973.69;4985424;28;20086;-59
2021/09/19 09:13:13;;;;;;;16.17;14.00;;;;;;;20.97;100.00;95971.75;4984146;28;20061;-57
2021/09/19 09:15:43;;;;;;;15.53;13.90;;;;;;;20.21;100.00;95976.28;4979447;28;20484;-58
2021/09/19 09:18:15;;;;;;;12.95;11.55;;;;;;;20.22;100.00;95971.75;4982847;28;20080;-57
2021/09/19 09:20:52;;;;;;;10.70;9.60;;;;;;;20.69;100.00;95966.88;4980659;28;20062;-59
2021/09/19 09:23:22;;;;;;;11.60;9.15;;;;;;;19.71;100.00;95967.31;4981623;28;20096;-55
2021/09/19 09:26:17;;;;;;;9.98;8.93;;;;;;;19.58;100.00;95957.47;4979780;28;20117;-56
2021/09/19 09:28:49;;;;;;;9.57;8.57;;;;;;;19.39;100.00;95965.38;4984542;28;20484;-56
2021/09/19 09:31:24;;;;;;;10.55;9.18;;;;;;;19.98;100.00;95968.00;4983805;28;20081;-59
2021/09/19 09:33:57;;;;;;;10.50;9.23;;;;;;;21.40;100.00;95954.78;4980525;28;20050;-60
2021/09/19 09:36:37;;;;;;;10.55;8.98;;;;;;;20.75;100.00;95950.75;4985653;28;20076;-58
2021/09/19 09:39:30;;;;;;;13.38;9.43;;;;;;;20.53;100.00;95952.16;4984844;28;20547;-55
2021/09/19 09:42:04;;;;;;;10.02;9.02;;;;;;;20.55;100.00;95953.59;4980188;28;20077;-58
2021/09/19 09:44:35;;;;;;;10.45;9.35;;;;;;;21.10;100.00;95952.84;4983715;28;20074;-55
2021/09/19 09:47:06;;;;;;;9.90;8.82;;;;;;;20.57;100.00;95962.22;4981867;28;20528;-60
2021/09/19 09:49:37;;;;;;;8.90;8.00;;;;;;;21.31;100.00;95957.75;4982522;28;20551;-56
2021/09/19 09:52:07;;;;;;;9.65;8.65;;;;;;;21.37;100.00;95947.19;4983570;28;20093;-58
2021/09/19 09:54:44;;;;;;;9.48;8.00;;;;;;;20.55;100.00;95958.13;4983529;28;20092;-56
2021/09/19 09:57:16;;;;;;;9.60;8.57;;;;;;;20.96;100.00;95949.50;4982447;28;20619;-58
2021/09/19 09:59:45;;;;;;;9.40;8.40;;;;;;;21.32;100.00;95950.53;4981232;28;20660;-57
2021/09/19 10:02:16;;;;;;;10.20;8.23;;;;;;;21.58;99.65;95948.59;4981683;28;20072;-58
2021/09/19 10:04:46;;;;;;;10.95;9.02;;;;;;;20.96;100.00;95951.34;4984439;28;20089;-58
2021/09/19 10:07:15;;;;;;;9.30;8.35;;;;;;;21.44;99.66;95940.72;4990631;28;20070;-56
2021/09/19 10:09:44;;;;;;;10.00;8.02;;;;;;;22.69;90.09;95937.22;4982392;28;20544;-54
2021/09/19 10:12:14;;;;;;;8.38;7.47;;;;;;;22.38;90.09;95932.19;4985361;28;20078;-57
2021/09/19 10:14:42;;;;;;;9.75;8.00;;;;;;;22.15;100.00;95939.13;4989882;28;20065;-58
2021/09/19 10:17:11;;;;;;;7.97;7.18;;;;;;;22.25;94.52;95941.25;4985721;28;20070;-58
2021/09/19 10:19:42;;;;;;;8.75;7.68;;;;;;;22.60;92.85;95943.16;4989570;28;20089;-56
2021/09/19 10:22:12;;;;;;;12.57;8.45;;;;;;;22.98;90.49;95943.53;4993236;28;20082;-56
2021/09/19 10:24:40;;;;;;;9.30;8.30;;;;;;;22.47;93.03;95945.03;4985594;28;20065;-58
2021/09/19 10:27:22;;;;;;;10.13;8.68;;;;;;;22.64;86.31;95949.72;4987730;28;20116;-59
2021/09/19 10:29:57;;;;;;;9.18;8.23;;;;;;;22.25;93.45;95947.44;4988263;28;20077;-57
2021/09/19 10:32:33;;;;;;;10.00;9.00;;;;;;;22.47;86.48;95942.34;4990117;28;20077;-57
2021/09/19 10:35:02;;;;;;;9.68;8.68;;;;;;;22.04;88.28;95948.78;4989538;28;20066;-56
2021/09/19 10:37:48;;;;;;;9.82;8.77;;;;;;;21.70;88.95;95952.16;4997108;28;20074;-57
2021/09/19 10:40:31;;;;;;;9.57;8.32;;;;;;;21.98;93.11;95943.50;4986105;28;20255;-55
2021/09/19 10:43:02;;;;;;;12.85;8.75;;;;;;;22.27;86.52;95933.78;4981790;28;20474;-58
2021/09/19 10:45:39;;;;;;;11.38;8.70;;;;;;;21.77;90.41;95937.59;4986497;28;20058;-53
2021/09/19 10:48:14;;;;;;;9.73;8.50;;;;;;;22.39;88.41;95933.81;4984690;28;20744;-57
2021/09/19 10:50:44;;;;;;;10.50;8.50;;;;;;;22.34;85.64;95929.13;4986767;28;20066;-56
2021/09/19 10:53:24;;;;;;;11.32;8.60;;;;;;;22.52;82.04;95920.97;4987797;28;20081;-57
2021/09/19 10:55:56;;;;;;;9.60;8.38;;;;;;;22.14;86.26;95932.09;4988415;28;20058;-58
2021/09/19 10:58:28;;;;;;;9.52;8.10;;;;;;;22.62;85.06;95923.06;4990434;28;20081;-59
2021/09/19 11:01:08;;;;;;;8.75;7.85;;;;;;;22.12;84.66;95919.94;4983478;28;20237;-58
2021/09/19 11:03:38;;;;;;;11.25;8.10;;;;;;;22.84;78.93;95923.28;4992778;28;20532;-58
2021/09/19 11:06:21;;;;;;;10.15;7.80;;;;;;;23.49;73.80;95911.50;4989757;28;20465;-52
2021/09/19 11:08:50;;;;;;;9.68;7.68;;;;;;;23.16;74.35;95915.69;4990325;28;20080;-58
2021/09/19 11:11:24;;;;;;;7.90;7.05;;;;;;;23.48;75.14;95917.94;4994811;28;20595;-54
2021/09/19 11:14:04;;;;;;;7.72;6.97;;;;;;;22.92;74.38;95911.38;4986958;28;20073;-57
2021/09/19 11:16:41;;;;;;;7.45;6.43;;;;;;;22.61;74.52;95918.75;4990069;28;20100;-56
2021/09/19 11:19:12;;;;;;;6.90;6.20;;;;;;;22.63;74.22;95915.81;4990929;28;20078;-58
2021/09/19 11:21:44;;;;;;;7.70;6.90;;;;;;;22.29;77.56;95918.25;4996411;28;20084;-55
2021/09/19 11:24:14;;;;;;;7.88;6.18;;;;;;;23.90;68.88;95906.91;4990273;28;20078;-59